This is the latest recevied weather packets stored in our database for station/object XE1GMR. If no packets are shown the sender has not sent any weather packets the latest 10 day(s).
| Time | Temp. | Humidity | Pressure | Rain* | Wind** | Luminosity | Snow |
|---|---|---|---|---|---|---|---|
| 1777745093 | 27.78° C | 39% | 1121.1 hPa | 0 mm | - | 760 W/m² | - |
| 1777744789 | 27.22° C | 41% | 1121.1 hPa | 0 mm | - | 753 W/m² | - |
| 1777744484 | 27.22° C | 43% | 1120.9 hPa | 0 mm | - | 753 W/m² | - |
| 1777744180 | 27.22° C | 43% | 1121.3 hPa | 0 mm | - | 754 W/m² | - |
| 1777743877 | 26.67° C | 44% | 1121.2 hPa | 0 mm | - | 753 W/m² | - |
| 1777743574 | 27.22° C | 45% | 1121.3 hPa | 0 mm | - | 750 W/m² | - |
| 1777743271 | 28.33° C | 43% | 1121.3 hPa | 0 mm | - | 752 W/m² | - |
| 1777742970 | 27.78° C | 43% | 1121.3 hPa | 0 mm | - | 741 W/m² | - |
| 1777742666 | 27.78° C | 43% | 1121.3 hPa | 0 mm | - | 749 W/m² | - |
| 1777742362 | 27.22° C | 44% | 1121.5 hPa | 0 mm | - | 757 W/m² | - |
| 1777742058 | 26.67° C | 47% | 1121.3 hPa | 0 mm | - | 742 W/m² | - |
| 1777741756 | 26.67° C | 48% | 1121.3 hPa | 0 mm | - | 744 W/m² | - |
| 1777741452 | 26.11° C | 49% | 1121.7 hPa | 0 mm | - | 690 W/m² | - |
| 1777741148 | 25.56° C | 50% | 1121.6 hPa | 0 mm | - | 741 W/m² | - |
| 1777740845 | 26.11° C | 50% | 1121.8 hPa | 0 mm | - | 740 W/m² | - |
| 1777740542 | 26.67° C | 48% | 1121.7 hPa | 0 mm | - | 768 W/m² | - |
| 1777740239 | 25.56° C | 50% | 1121.8 hPa | 0 mm | - | 750 W/m² | - |
| 1777739935 | 26.11° C | 49% | 1121.9 hPa | 0 mm | - | 489 W/m² | - |
| 1777739631 | 25.56° C | 51% | 1121.9 hPa | 0 mm | - | 741 W/m² | - |
| 1777739329 | 25.56° C | 50% | 1121.8 hPa | 0 mm | - | 745 W/m² | - |
| 1777739025 | 25.56° C | 52% | 1121.9 hPa | 0 mm | - | 747 W/m² | - |
| 1777738723 | 25° C | 52% | 1122 hPa | 0 mm | - | 766 W/m² | - |
| 1777738419 | 25.56° C | 51% | 1121.9 hPa | 0 mm | - | 766 W/m² | - |
| 1777738117 | 25° C | 52% | 1122.1 hPa | 0 mm | - | 757 W/m² | - |
| 1777737815 | 24.44° C | 54% | 1121.8 hPa | 0 mm | - | 742 W/m² | - |
* Rain latest hour (hover to see other rain measurements)
** Current wind speed in m/s (hover to see current wind gust speed)